sensor_id;sensor_type;location;lat;lon;timestamp;pressure;altitude;pressure_sealevel;temperature;humidity
41140;BME280;26881;48.784;9.192;2022-10-16T00:00:30;98438.91;;;15.74;100.00
41140;BME280;26881;48.784;9.192;2022-10-16T00:05:52;98437.94;;;15.75;100.00
41140;BME280;26881;48.784;9.192;2022-10-16T00:11:19;98427.97;;;15.78;100.00
41140;BME280;26881;48.784;9.192;2022-10-16T00:16:41;98431.44;;;15.79;100.00
41140;BME280;26881;48.784;9.192;2022-10-16T00:22:04;98427.53;;;15.73;100.00
41140;BME280;26881;48.784;9.192;2022-10-16T00:27:25;98423.78;;;15.76;100.00
41140;BME280;26881;48.784;9.192;2022-10-16T00:32:47;98422.59;;;15.69;100.00
41140;BME280;26881;48.784;9.192;2022-10-16T00:38:09;98426.19;;;15.68;100.00
41140;BME280;26881;48.784;9.192;2022-10-16T00:43:46;98432.53;;;15.65;100.00
41140;BME280;26881;48.784;9.192;2022-10-16T00:49:09;98434.72;;;15.60;100.00
41140;BME280;26881;48.784;9.192;2022-10-16T00:54:32;98423.34;;;15.59;100.00
41140;BME280;26881;48.784;9.192;2022-10-16T00:59:54;98431.13;;;15.61;100.00
41140;BME280;26881;48.784;9.192;2022-10-16T01:05:16;98441.66;;;15.61;100.00
41140;BME280;26881;48.784;9.192;2022-10-16T01:10:40;98451.38;;;15.60;100.00
41140;BME280;26881;48.784;9.192;2022-10-16T01:16:13;98448.75;;;15.60;100.00
41140;BME280;26881;48.784;9.192;2022-10-16T01:21:40;98461.47;;;15.55;100.00
41140;BME280;26881;48.784;9.192;2022-10-16T01:32:36;98441.44;;;15.64;100.00
41140;BME280;26881;48.784;9.192;2022-10-16T01:38:03;98440.22;;;15.57;100.00
41140;BME280;26881;48.784;9.192;2022-10-16T01:43:31;98436.38;;;15.61;100.00
41140;BME280;26881;48.784;9.192;2022-10-16T01:48:55;98434.13;;;15.56;100.00
41140;BME280;26881;48.784;9.192;2022-10-16T01:54:18;98428.47;;;15.61;100.00
41140;BME280;26881;48.784;9.192;2022-10-16T01:59:47;98426.81;;;15.71;100.00
41140;BME280;26881;48.784;9.192;2022-10-16T02:05:27;98431.22;;;15.71;100.00
41140;BME280;26881;48.784;9.192;2022-10-16T02:10:50;98423.44;;;15.69;100.00
41140;BME280;26881;48.784;9.192;2022-10-16T02:16:12;98430.03;;;15.64;100.00
41140;BME280;26881;48.784;9.192;2022-10-16T02:21:47;98437.09;;;15.63;100.00
41140;BME280;26881;48.784;9.192;2022-10-16T02:28:00;98442.88;;;15.57;100.00
41140;BME280;26881;48.784;9.192;2022-10-16T02:33:00;98430.56;;;15.57;100.00
41140;BME280;26881;48.784;9.192;2022-10-16T02:38:25;98431.50;;;15.56;100.00
41140;BME280;26881;48.784;9.192;2022-10-16T02:43:47;98426.22;;;15.56;100.00
41140;BME280;26881;48.784;9.192;2022-10-16T02:49:09;98426.56;;;15.63;100.00
41140;BME280;26881;48.784;9.192;2022-10-16T02:54:30;98438.09;;;15.62;100.00
41140;BME280;26881;48.784;9.192;2022-10-16T02:59:52;98441.66;;;15.61;100.00
41140;BME280;26881;48.784;9.192;2022-10-16T03:05:14;98448.75;;;15.60;100.00
41140;BME280;26881;48.784;9.192;2022-10-16T03:10:37;98443.84;;;15.56;100.00
41140;BME280;26881;48.784;9.192;2022-10-16T03:15:58;98454.75;;;15.51;100.00
41140;BME280;26881;48.784;9.192;2022-10-16T03:21:20;98449.88;;;15.47;100.00
41140;BME280;26881;48.784;9.192;2022-10-16T03:26:42;98453.69;;;15.43;100.00
41140;BME280;26881;48.784;9.192;2022-10-16T03:32:04;98455.63;;;15.41;100.00
41140;BME280;26881;48.784;9.192;2022-10-16T03:37:25;98444.25;;;15.40;100.00
41140;BME280;26881;48.784;9.192;2022-10-16T03:42:48;98457.94;;;15.34;100.00
41140;BME280;26881;48.784;9.192;2022-10-16T03:48:09;98457.94;;;15.34;100.00
41140;BME280;26881;48.784;9.192;2022-10-16T03:53:31;98455.88;;;15.37;100.00
41140;BME280;26881;48.784;9.192;2022-10-16T03:58:53;98462.22;;;15.35;100.00
41140;BME280;26881;48.784;9.192;2022-10-16T04:04:15;98459.97;;;15.30;100.00
41140;BME280;26881;48.784;9.192;2022-10-16T04:09:37;98455.31;;;15.34;100.00
41140;BME280;26881;48.784;9.192;2022-10-16T04:14:59;98463.22;;;15.34;100.00
41140;BME280;26881;48.784;9.192;2022-10-16T04:20:20;98461.63;;;15.31;100.00
41140;BME280;26881;48.784;9.192;2022-10-16T04:25:42;98454.69;;;15.30;100.00
41140;BME280;26881;48.784;9.192;2022-10-16T04:31:05;98456.25;;;15.33;100.00
41140;BME280;26881;48.784;9.192;2022-10-16T04:36:27;98461.25;;;15.36;100.00
41140;BME280;26881;48.784;9.192;2022-10-16T04:41:50;98461.41;;;15.34;100.00
41140;BME280;26881;48.784;9.192;2022-10-16T04:47:12;98468.47;;;15.34;100.00
41140;BME280;26881;48.784;9.192;2022-10-16T04:52:33;98478.16;;;15.33;100.00
41140;BME280;26881;48.784;9.192;2022-10-16T04:58:00;98487.28;;;15.29;100.00
41140;BME280;26881;48.784;9.192;2022-10-16T05:03:22;98492.19;;;15.34;100.00
41140;BME280;26881;48.784;9.192;2022-10-16T05:08:44;98494.94;;;15.32;100.00
41140;BME280;26881;48.784;9.192;2022-10-16T05:14:06;98497.94;;;15.28;100.00
41140;BME280;26881;48.784;9.192;2022-10-16T05:19:27;98498.06;;;15.26;100.00
41140;BME280;26881;48.784;9.192;2022-10-16T05:24:49;98498.53;;;15.31;100.00
41140;BME280;26881;48.784;9.192;2022-10-16T05:30:11;98496.03;;;15.30;100.00
41140;BME280;26881;48.784;9.192;2022-10-16T05:35:33;98491.94;;;15.26;100.00
41140;BME280;26881;48.784;9.192;2022-10-16T05:40:55;98505.50;;;15.21;100.00
41140;BME280;26881;48.784;9.192;2022-10-16T05:46:17;98514.72;;;15.15;100.00
41140;BME280;26881;48.784;9.192;2022-10-16T05:51:40;98509.47;;;15.15;100.00
41140;BME280;26881;48.784;9.192;2022-10-16T05:57:02;98512.94;;;15.16;100.00
41140;BME280;26881;48.784;9.192;2022-10-16T06:02:27;98522.75;;;15.14;100.00
41140;BME280;26881;48.784;9.192;2022-10-16T06:07:48;98530.91;;;15.22;100.00
41140;BME280;26881;48.784;9.192;2022-10-16T06:13:11;98539.50;;;15.24;100.00
41140;BME280;26881;48.784;9.192;2022-10-16T06:18:33;98529.44;;;15.29;100.00
41140;BME280;26881;48.784;9.192;2022-10-16T06:23:55;98543.72;;;15.27;100.00
41140;BME280;26881;48.784;9.192;2022-10-16T06:29:17;98542.00;;;15.26;100.00
41140;BME280;26881;48.784;9.192;2022-10-16T06:34:39;98542.13;;;15.24;100.00
41140;BME280;26881;48.784;9.192;2022-10-16T06:40:05;98547.66;;;15.21;100.00
41140;BME280;26881;48.784;9.192;2022-10-16T06:45:27;98545.94;;;15.31;100.00
41140;BME280;26881;48.784;9.192;2022-10-16T06:51:18;98566.81;;;15.34;100.00
41140;BME280;26881;48.784;9.192;2022-10-16T06:56:40;98572.81;;;15.36;100.00
41140;BME280;26881;48.784;9.192;2022-10-16T07:02:02;98568.84;;;15.42;100.00
41140;BME280;26881;48.784;9.192;2022-10-16T07:07:24;98577.19;;;15.47;100.00
41140;BME280;26881;48.784;9.192;2022-10-16T07:12:48;98587.28;;;15.53;100.00
41140;BME280;26881;48.784;9.192;2022-10-16T07:18:09;98599.25;;;15.57;100.00
41140;BME280;26881;48.784;9.192;2022-10-16T07:23:31;98613.75;;;15.63;100.00
41140;BME280;26881;48.784;9.192;2022-10-16T07:28:53;98615.06;;;15.69;100.00
41140;BME280;26881;48.784;9.192;2022-10-16T07:34:17;98636.41;;;15.77;100.00
41140;BME280;26881;48.784;9.192;2022-10-16T07:39:39;98627.66;;;15.76;100.00
41140;BME280;26881;48.784;9.192;2022-10-16T07:45:01;98630.88;;;15.80;100.00
41140;BME280;26881;48.784;9.192;2022-10-16T07:50:23;98626.47;;;15.80;100.00
41140;BME280;26881;48.784;9.192;2022-10-16T07:55:45;98646.34;;;15.85;100.00
41140;BME280;26881;48.784;9.192;2022-10-16T08:01:09;98645.59;;;15.94;100.00
41140;BME280;26881;48.784;9.192;2022-10-16T08:06:35;98638.75;;;16.02;100.00
41140;BME280;26881;48.784;9.192;2022-10-16T08:11:58;98644.88;;;16.03;100.00
41140;BME280;26881;48.784;9.192;2022-10-16T08:17:23;98646.19;;;16.09;100.00
41140;BME280;26881;48.784;9.192;2022-10-16T08:22:45;98637.66;;;16.16;100.00
41140;BME280;26881;48.784;9.192;2022-10-16T08:28:09;98652.75;;;16.26;100.00
41140;BME280;26881;48.784;9.192;2022-10-16T08:33:31;98667.94;;;16.33;99.82
41140;BME280;26881;48.784;9.192;2022-10-16T08:38:53;98673.31;;;16.43;98.32
41140;BME280;26881;48.784;9.192;2022-10-16T08:44:28;98675.47;;;16.49;97.53
41140;BME280;26881;48.784;9.192;2022-10-16T08:50:08;98668.00;;;16.54;95.75
41140;BME280;26881;48.784;9.192;2022-10-16T08:55:41;98670.31;;;16.69;92.51
41140;BME280;26881;48.784;9.192;2022-10-16T09:01:04;98676.22;;;16.72;93.12
41140;BME280;26881;48.784;9.192;2022-10-16T09:12:03;98670.44;;;16.78;95.20
41140;BME280;26881;48.784;9.192;2022-10-16T09:28:25;98687.16;;;17.00;92.79
41140;BME280;26881;48.784;9.192;2022-10-16T09:33:54;98694.69;;;17.04;92.05
41140;BME280;26881;48.784;9.192;2022-10-16T09:39:16;98699.72;;;17.08;92.60
41140;BME280;26881;48.784;9.192;2022-10-16T09:44:38;98696.81;;;17.11;91.81
41140;BME280;26881;48.784;9.192;2022-10-16T09:50:05;98703.91;;;17.10;92.71
41140;BME280;26881;48.784;9.192;2022-10-16T09:55:47;98702.69;;;17.14;93.23
41140;BME280;26881;48.784;9.192;2022-10-16T10:01:14;98699.38;;;17.22;93.54
41140;BME280;26881;48.784;9.192;2022-10-16T10:06:42;98712.88;;;17.40;89.88
41140;BME280;26881;48.784;9.192;2022-10-16T10:12:06;98718.88;;;17.42;90.39
41140;BME280;26881;48.784;9.192;2022-10-16T10:17:49;98724.06;;;17.53;90.80
41140;BME280;26881;48.784;9.192;2022-10-16T10:23:22;98728.25;;;17.56;91.41
41140;BME280;26881;48.784;9.192;2022-10-16T10:35:03;98720.69;;;17.72;90.70
41140;BME280;26881;48.784;9.192;2022-10-16T10:40:51;98725.44;;;17.78;91.12
41140;BME280;26881;48.784;9.192;2022-10-16T11:09:24;98717.94;;;18.04;88.01
41140;BME280;26881;48.784;9.192;2022-10-16T11:26:08;98706.13;;;18.18;89.42
41140;BME280;26881;48.784;9.192;2022-10-16T11:31:42;98717.84;;;18.25;86.33
41140;BME280;26881;48.784;9.192;2022-10-16T11:37:30;98710.44;;;18.29;86.63
41140;BME280;26881;48.784;9.192;2022-10-16T11:43:08;98716.16;;;18.34;86.69
41140;BME280;26881;48.784;9.192;2022-10-16T11:48:43;98710.22;;;18.51;83.16
41140;BME280;26881;48.784;9.192;2022-10-16T11:54:35;98708.97;;;18.65;82.10
41140;BME280;26881;48.784;9.192;2022-10-16T12:00:03;98705.41;;;18.86;80.04
41140;BME280;26881;48.784;9.192;2022-10-16T12:11:30;98699.47;;;19.31;71.78
41140;BME280;26881;48.784;9.192;2022-10-16T12:22:23;98696.06;;;19.48;72.48
41140;BME280;26881;48.784;9.192;2022-10-16T12:27:59;98698.16;;;19.54;70.54
41140;BME280;26881;48.784;9.192;2022-10-16T12:33:25;98704.97;;;19.57;70.61
41140;BME280;26881;48.784;9.192;2022-10-16T12:38:49;98711.84;;;19.50;70.87
41140;BME280;26881;48.784;9.192;2022-10-16T12:44:23;98697.34;;;19.44;74.36
41140;BME280;26881;48.784;9.192;2022-10-16T12:49:52;98702.38;;;19.47;73.85
41140;BME280;26881;48.784;9.192;2022-10-16T12:55:19;98711.72;;;19.51;73.02
41140;BME280;26881;48.784;9.192;2022-10-16T13:00:50;98707.66;;;19.47;73.85
41140;BME280;26881;48.784;9.192;2022-10-16T13:06:33;98718.84;;;19.41;74.09
41140;BME280;26881;48.784;9.192;2022-10-16T13:12:22;98724.72;;;19.35;74.65
41140;BME280;26881;48.784;9.192;2022-10-16T13:18:01;98719.66;;;19.51;72.86
41140;BME280;26881;48.784;9.192;2022-10-16T13:29:31;98718.97;;;19.49;74.89
41140;BME280;26881;48.784;9.192;2022-10-16T13:34:53;98722.63;;;19.38;77.18
41140;BME280;26881;48.784;9.192;2022-10-16T13:40:21;98723.63;;;19.37;78.83
41140;BME280;26881;48.784;9.192;2022-10-16T13:45:52;98723.03;;;19.34;77.18
41140;BME280;26881;48.784;9.192;2022-10-16T13:51:16;98724.72;;;19.35;75.72
41140;BME280;26881;48.784;9.192;2022-10-16T13:56:39;98719.97;;;19.38;77.07
41140;BME280;26881;48.784;9.192;2022-10-16T14:02:08;98720.41;;;19.34;79.70
41140;BME280;26881;48.784;9.192;2022-10-16T14:07:36;98726.00;;;19.31;79.06
41140;BME280;26881;48.784;9.192;2022-10-16T14:13:02;98722.66;;;19.29;78.37
41140;BME280;26881;48.784;9.192;2022-10-16T14:18:26;98715.25;;;19.23;79.74
41140;BME280;26881;48.784;9.192;2022-10-16T14:23:56;98721.84;;;19.19;80.16
41140;BME280;26881;48.784;9.192;2022-10-16T14:29:19;98723.63;;;19.18;81.17
41140;BME280;26881;48.784;9.192;2022-10-16T14:34:41;98722.50;;;19.21;82.50
41140;BME280;26881;48.784;9.192;2022-10-16T14:40:04;98729.50;;;19.22;83.08
41140;BME280;26881;48.784;9.192;2022-10-16T14:45:28;98732.44;;;19.19;82.95
41140;BME280;26881;48.784;9.192;2022-10-16T14:50:51;98734.94;;;19.20;83.72
41140;BME280;26881;48.784;9.192;2022-10-16T14:56:21;98739.09;;;19.23;80.30
41140;BME280;26881;48.784;9.192;2022-10-16T15:01:44;98746.81;;;19.26;81.04
41140;BME280;26881;48.784;9.192;2022-10-16T15:07:07;98728.38;;;19.24;82.95
41140;BME280;26881;48.784;9.192;2022-10-16T15:12:29;98731.44;;;19.29;82.29
41140;BME280;26881;48.784;9.192;2022-10-16T15:17:52;98731.44;;;19.29;82.30
41140;BME280;26881;48.784;9.192;2022-10-16T15:23:18;98744.56;;;19.31;81.41
41140;BME280;26881;48.784;9.192;2022-10-16T15:28:39;98741.19;;;19.38;80.54
41140;BME280;26881;48.784;9.192;2022-10-16T15:34:01;98731.16;;;19.32;83.62
41140;BME280;26881;48.784;9.192;2022-10-16T15:39:25;98743.72;;;19.30;84.20
41140;BME280;26881;48.784;9.192;2022-10-16T15:44:49;98734.09;;;19.20;85.62
41140;BME280;26881;48.784;9.192;2022-10-16T15:50:15;98736.88;;;19.18;87.34
41140;BME280;26881;48.784;9.192;2022-10-16T15:55:38;98751.69;;;19.11;88.30
41140;BME280;26881;48.784;9.192;2022-10-16T16:01:01;98750.44;;;19.05;88.94
41140;BME280;26881;48.784;9.192;2022-10-16T16:06:25;98742.91;;;19.01;89.87
41140;BME280;26881;48.784;9.192;2022-10-16T16:11:46;98748.63;;;18.96;90.43
41140;BME280;26881;48.784;9.192;2022-10-16T16:17:08;98747.38;;;18.90;90.71
41140;BME280;26881;48.784;9.192;2022-10-16T16:22:30;98750.69;;;18.83;90.49
41140;BME280;26881;48.784;9.192;2022-10-16T16:27:52;98745.97;;;18.77;90.12
41140;BME280;26881;48.784;9.192;2022-10-16T16:33:14;98761.28;;;18.73;88.92
41140;BME280;26881;48.784;9.192;2022-10-16T16:38:36;98774.22;;;18.66;88.45
41140;BME280;26881;48.784;9.192;2022-10-16T16:44:06;98772.16;;;18.60;87.27
41140;BME280;26881;48.784;9.192;2022-10-16T16:49:28;98774.34;;;18.55;86.10
41140;BME280;26881;48.784;9.192;2022-10-16T16:54:50;98772.50;;;18.46;86.80
41140;BME280;26881;48.784;9.192;2022-10-16T17:00:13;98777.38;;;18.41;87.01
41140;BME280;26881;48.784;9.192;2022-10-16T17:05:35;98777.06;;;18.34;87.71
41140;BME280;26881;48.784;9.192;2022-10-16T17:10:57;98798.53;;;18.31;87.33
41140;BME280;26881;48.784;9.192;2022-10-16T17:16:20;98797.94;;;18.27;87.35
41140;BME280;26881;48.784;9.192;2022-10-16T17:21:43;98802.56;;;18.25;86.86
41140;BME280;26881;48.784;9.192;2022-10-16T17:27:05;98803.38;;;18.16;87.13
41140;BME280;26881;48.784;9.192;2022-10-16T17:32:26;98818.78;;;18.11;87.41
41140;BME280;26881;48.784;9.192;2022-10-16T17:37:51;98812.94;;;18.07;87.43
41140;BME280;26881;48.784;9.192;2022-10-16T17:43:13;98820.56;;;18.01;87.77
41140;BME280;26881;48.784;9.192;2022-10-16T17:48:38;98834.31;;;17.95;88.81
41140;BME280;26881;48.784;9.192;2022-10-16T17:54:00;98834.53;;;17.82;89.54
41140;BME280;26881;48.784;9.192;2022-10-16T17:59:23;98842.22;;;17.74;90.57
41140;BME280;26881;48.784;9.192;2022-10-16T18:04:45;98845.09;;;17.82;89.06
41140;BME280;26881;48.784;9.192;2022-10-16T18:10:07;98848.38;;;17.74;90.14
41140;BME280;26881;48.784;9.192;2022-10-16T18:15:32;98848.75;;;17.69;90.32
41140;BME280;26881;48.784;9.192;2022-10-16T18:20:59;98857.13;;;17.54;91.91
41140;BME280;26881;48.784;9.192;2022-10-16T18:26:22;98860.28;;;17.47;92.64
41140;BME280;26881;48.784;9.192;2022-10-16T18:31:43;98860.91;;;17.40;93.79
41140;BME280;26881;48.784;9.192;2022-10-16T18:37:05;98874.53;;;17.35;94.06
41140;BME280;26881;48.784;9.192;2022-10-16T18:42:27;98874.91;;;17.31;94.33
41140;BME280;26881;48.784;9.192;2022-10-16T18:47:49;98873.59;;;17.25;95.03
41140;BME280;26881;48.784;9.192;2022-10-16T18:53:10;98894.63;;;17.15;95.75
41140;BME280;26881;48.784;9.192;2022-10-16T18:58:36;98892.34;;;17.22;94.04
41140;BME280;26881;48.784;9.192;2022-10-16T19:04:10;98888.03;;;17.21;93.98
41140;BME280;26881;48.784;9.192;2022-10-16T19:09:32;98896.78;;;17.21;93.57
41140;BME280;26881;48.784;9.192;2022-10-16T19:14:54;98897.44;;;17.14;94.57
41140;BME280;26881;48.784;9.192;2022-10-16T19:20:15;98900.81;;;17.04;96.15
41140;BME280;26881;48.784;9.192;2022-10-16T19:25:37;98901.03;;;17.01;95.43
41140;BME280;26881;48.784;9.192;2022-10-16T19:31:02;98907.41;;;16.99;96.00
41140;BME280;26881;48.784;9.192;2022-10-16T19:36:26;98906.56;;;16.98;94.84
41140;BME280;26881;48.784;9.192;2022-10-16T19:41:48;98914.28;;;16.90;96.27
41140;BME280;26881;48.784;9.192;2022-10-16T19:47:10;98912.97;;;16.84;96.72
41140;BME280;26881;48.784;9.192;2022-10-16T19:52:32;98916.44;;;16.74;97.29
41140;BME280;26881;48.784;9.192;2022-10-16T19:57:54;98921.84;;;16.83;96.36
41140;BME280;26881;48.784;9.192;2022-10-16T20:03:16;98932.66;;;16.80;96.86
41140;BME280;26881;48.784;9.192;2022-10-16T20:08:39;98935.44;;;16.79;96.37
41140;BME280;26881;48.784;9.192;2022-10-16T20:14:02;98943.34;;;16.79;95.58
41140;BME280;26881;48.784;9.192;2022-10-16T20:19:24;98947.56;;;16.81;94.94
41140;BME280;26881;48.784;9.192;2022-10-16T20:24:46;98952.00;;;16.81;94.87
41140;BME280;26881;48.784;9.192;2022-10-16T20:30:08;98968.91;;;16.78;94.59
41140;BME280;26881;48.784;9.192;2022-10-16T20:35:38;98972.59;;;16.76;95.10
41140;BME280;26881;48.784;9.192;2022-10-16T20:41:02;98980.53;;;16.76;93.95
41140;BME280;26881;48.784;9.192;2022-10-16T20:46:26;98982.22;;;16.65;94.31
41140;BME280;26881;48.784;9.192;2022-10-16T20:51:48;98990.38;;;16.62;93.33
41140;BME280;26881;48.784;9.192;2022-10-16T20:57:10;99009.78;;;16.50;94.01
41140;BME280;26881;48.784;9.192;2022-10-16T21:02:32;99007.63;;;16.44;94.46
41140;BME280;26881;48.784;9.192;2022-10-16T21:07:54;99015.56;;;16.44;93.71
41140;BME280;26881;48.784;9.192;2022-10-16T21:13:16;99019.63;;;16.37;94.69
41140;BME280;26881;48.784;9.192;2022-10-16T21:18:38;99021.97;;;16.29;95.45
41140;BME280;26881;48.784;9.192;2022-10-16T21:24:06;99038.06;;;16.26;95.91
41140;BME280;26881;48.784;9.192;2022-10-16T21:29:34;99032.69;;;16.27;94.82
41140;BME280;26881;48.784;9.192;2022-10-16T21:34:56;99037.81;;;16.29;94.89
41140;BME280;26881;48.784;9.192;2022-10-16T21:40:17;99040.06;;;16.22;94.85
41140;BME280;26881;48.784;9.192;2022-10-16T21:45:39;99042.34;;;16.15;94.14
41140;BME280;26881;48.784;9.192;2022-10-16T21:51:01;99036.56;;;16.10;94.14
41140;BME280;26881;48.784;9.192;2022-10-16T21:56:23;99027.81;;;16.10;94.41
41140;BME280;26881;48.784;9.192;2022-10-16T22:01:44;99028.38;;;16.02;94.50
41140;BME280;26881;48.784;9.192;2022-10-16T22:07:06;99038.19;;;16.00;94.40
41140;BME280;26881;48.784;9.192;2022-10-16T22:12:28;99036.97;;;15.93;95.25
41140;BME280;26881;48.784;9.192;2022-10-16T22:17:50;99034.44;;;15.91;95.52
41140;BME280;26881;48.784;9.192;2022-10-16T22:23:12;99044.84;;;15.82;96.68
41140;BME280;26881;48.784;9.192;2022-10-16T22:28:34;99051.28;;;15.77;97.13
41140;BME280;26881;48.784;9.192;2022-10-16T22:33:59;99038.91;;;15.78;97.87
41140;BME280;26881;48.784;9.192;2022-10-16T22:39:21;99039.38;;;15.72;98.89
41140;BME280;26881;48.784;9.192;2022-10-16T22:44:42;99047.59;;;15.67;99.62
41140;BME280;26881;48.784;9.192;2022-10-16T22:50:05;99049.28;;;15.68;99.20
41140;BME280;26881;48.784;9.192;2022-10-16T22:55:26;99043.50;;;15.63;99.39
41140;BME280;26881;48.784;9.192;2022-10-16T23:00:49;99048.78;;;15.63;99.68
41140;BME280;26881;48.784;9.192;2022-10-16T23:06:11;99050.91;;;15.58;99.37
41140;BME280;26881;48.784;9.192;2022-10-16T23:11:32;99057.97;;;15.57;99.18
41140;BME280;26881;48.784;9.192;2022-10-16T23:16:54;99054.19;;;15.49;99.53
41140;BME280;26881;48.784;9.192;2022-10-16T23:22:16;99057.81;;;15.48;98.91
41140;BME280;26881;48.784;9.192;2022-10-16T23:27:38;99062.13;;;15.36;99.09
41140;BME280;26881;48.784;9.192;2022-10-16T23:32:59;99069.31;;;15.34;98.93
41140;BME280;26881;48.784;9.192;2022-10-16T23:38:21;99081.13;;;15.28;99.64
41140;BME280;26881;48.784;9.192;2022-10-16T23:43:43;99078.28;;;15.18;100.00
41140;BME280;26881;48.784;9.192;2022-10-16T23:49:05;99086.72;;;15.24;100.00
41140;BME280;26881;48.784;9.192;2022-10-16T23:54:26;99089.66;;;15.19;99.49
41140;BME280;26881;48.784;9.192;2022-10-16T23:59:48;99093.69;;;15.12;99.69
